createdAt,value
2023-05-04T00:01:15.618Z,98613.25
2023-05-04T00:03:19.096Z,98613.38
2023-05-04T00:05:22.715Z,98604.03
2023-05-04T00:07:25.998Z,98605.94
2023-05-04T00:09:29.098Z,98611.41
2023-05-04T00:11:32.148Z,98608.19
2023-05-04T00:13:35.268Z,98608.63
2023-05-04T00:15:38.579Z,98603.59
2023-05-04T00:17:43.191Z,98597.31
2023-05-04T00:19:46.567Z,98595.25
2023-05-04T00:21:49.730Z,98591.25
2023-05-04T00:23:53.042Z,98598.06
2023-05-04T00:25:56.550Z,98586.75
2023-05-04T00:27:59.908Z,98583.94
2023-05-04T00:30:03.421Z,98581.09
2023-05-04T00:32:07.455Z,98580.81
2023-05-04T00:34:11.900Z,98577.84
2023-05-04T00:36:14.965Z,98579.25
2023-05-04T00:38:19.297Z,98568.34
2023-05-04T00:40:22.603Z,98570.44
2023-05-04T00:42:26.133Z,98566.38
2023-05-04T00:44:29.688Z,98560.38
2023-05-04T00:46:33.640Z,98562.38
2023-05-04T00:48:36.737Z,98563.41
2023-05-04T00:50:41.448Z,98564.78
2023-05-04T00:52:45.033Z,98563.09
2023-05-04T00:54:48.896Z,98559.97
2023-05-04T00:56:52.181Z,98555.03
2023-05-04T00:58:57.792Z,98561.50
2023-05-04T01:01:01.156Z,98567.16
2023-05-04T01:03:04.334Z,98558.69
2023-05-04T01:05:08.234Z,98567.44
2023-05-04T01:07:18.338Z,98568.81
2023-05-04T01:09:25.749Z,98560.31
2023-05-04T01:11:33.722Z,98562.41
2023-05-04T01:13:36.892Z,98560.91
2023-05-04T01:15:40.464Z,98569.81
2023-05-04T01:17:43.599Z,98570.00
2023-05-04T01:19:46.738Z,98576.06
2023-05-04T01:21:51.413Z,98569.69
2023-05-04T01:23:54.483Z,98576.88
2023-05-04T01:26:04.835Z,98579.66
2023-05-04T01:28:09.616Z,98571.94
2023-05-04T01:30:18.279Z,98573.63
2023-05-04T01:32:22.431Z,98564.59
2023-05-04T01:34:25.446Z,98574.47
2023-05-04T01:36:28.614Z,98564.94
2023-05-04T01:38:33.249Z,98565.66
2023-05-04T01:40:36.241Z,98560.03
2023-05-04T01:42:39.497Z,98562.63
2023-05-04T01:44:42.601Z,98559.09
2023-05-04T01:46:45.870Z,98561.81
2023-05-04T01:48:48.955Z,98558.47
2023-05-04T01:50:52.041Z,98553.44
2023-05-04T01:52:55.145Z,98547.53
2023-05-04T01:54:59.720Z,98551.94
2023-05-04T01:57:03.430Z,98543.47
2023-05-04T01:59:06.655Z,98541.06
2023-05-04T02:01:10.243Z,98541.16
2023-05-04T02:03:13.366Z,98542.09
2023-05-04T02:05:16.687Z,98544.41
2023-05-04T02:07:19.758Z,98550.59
2023-05-04T02:09:22.901Z,98550.69
2023-05-04T02:11:27.247Z,98546.38
2023-05-04T02:13:30.260Z,98561.13
2023-05-04T02:15:33.210Z,98562.03
2023-05-04T02:17:36.302Z,98565.59
2023-05-04T02:19:39.360Z,98560.84
2023-05-04T02:21:43.068Z,98575.03
2023-05-04T02:23:46.110Z,98570.00
2023-05-04T02:25:49.497Z,98572.91
2023-05-04T02:27:54.051Z,98572.34
2023-05-04T02:29:58.472Z,98570.97
2023-05-04T02:32:01.618Z,98567.63
2023-05-04T02:34:04.812Z,98564.44
2023-05-04T02:36:08.298Z,98561.91
2023-05-04T02:38:11.317Z,98562.88
2023-05-04T02:40:16.352Z,98558.13
2023-05-04T02:42:20.383Z,98557.34
2023-05-04T02:44:25.050Z,98549.09
2023-05-04T02:46:28.080Z,98557.81
2023-05-04T02:48:31.401Z,98550.19
2023-05-04T02:50:34.463Z,98554.47
2023-05-04T02:52:37.531Z,98546.84
2023-05-04T02:54:41.044Z,98552.97
2023-05-04T02:56:44.107Z,98560.06
2023-05-04T02:58:47.212Z,98561.09
2023-05-04T03:00:56.228Z,98557.38
2023-05-04T03:02:59.255Z,98552.25
2023-05-04T03:05:02.719Z,98549.44
2023-05-04T03:07:05.694Z,98550.28
2023-05-04T03:09:09.720Z,98542.19
2023-05-04T03:11:12.878Z,98547.41
2023-05-04T03:13:16.675Z,98556.81
2023-05-04T03:15:20.170Z,98548.91
2023-05-04T03:17:24.638Z,98548.91
2023-05-04T03:19:28.104Z,98548.16
2023-05-04T03:21:31.333Z,98548.16
2023-05-04T03:23:35.527Z,98544.16
2023-05-04T03:25:38.606Z,98543.50
2023-05-04T03:27:42.065Z,98538.38
2023-05-04T03:29:45.277Z,98545.06
2023-05-04T03:31:48.703Z,98539.75
2023-05-04T03:33:54.994Z,98539.94
2023-05-04T03:35:58.773Z,98538.38
2023-05-04T03:38:01.813Z,98535.19
2023-05-04T03:40:05.894Z,98543.16
2023-05-04T03:42:09.204Z,98535.50
2023-05-04T03:44:12.227Z,98535.50
2023-05-04T03:46:15.512Z,98539.94
2023-05-04T03:48:18.586Z,98537.63
2023-05-04T03:50:23.195Z,98536.06
2023-05-04T03:52:26.664Z,98537.91
2023-05-04T03:54:29.675Z,98530.34
2023-05-04T03:56:32.857Z,98530.53
2023-05-04T03:58:36.330Z,98537.53
2023-05-04T04:00:41.591Z,98534.00
2023-05-04T04:02:49.620Z,98542.00
2023-05-04T04:04:55.670Z,98544.63
2023-05-04T04:07:00.204Z,98541.16
2023-05-04T04:09:05.492Z,98538.63
2023-05-04T04:11:08.521Z,98535.19
2023-05-04T04:13:11.663Z,98536.97
2023-05-04T04:15:14.818Z,98536.13
2023-05-04T04:17:17.919Z,98544.97
2023-05-04T04:19:21.020Z,98541.50
2023-05-04T04:21:24.049Z,98541.50
2023-05-04T04:23:28.437Z,98543.28
2023-05-04T04:25:31.578Z,98548.50
2023-05-04T04:27:38.227Z,98538.91
2023-05-04T04:29:41.698Z,98543.13
2023-05-04T04:31:45.235Z,98535.84
2023-05-04T04:33:48.482Z,98539.59
2023-05-04T04:35:51.799Z,98530.53
2023-05-04T04:37:54.889Z,98537.63
2023-05-04T04:39:59.269Z,98539.41
2023-05-04T04:42:02.752Z,98537.34
2023-05-04T04:44:06.003Z,98537.25
2023-05-04T04:46:09.420Z,98538.81
2023-05-04T04:48:12.897Z,98545.34
2023-05-04T04:50:15.913Z,98543.22
2023-05-04T04:52:19.139Z,98543.03
2023-05-04T04:54:22.156Z,98540.91
2023-05-04T04:56:27.002Z,98538.75
2023-05-04T04:58:30.014Z,98537.53
2023-05-04T05:00:33.149Z,98548.44
2023-05-04T05:02:36.456Z,98548.16
2023-05-04T05:04:41.060Z,98550.50
2023-05-04T05:06:44.150Z,98547.41
2023-05-04T05:08:47.175Z,98550.66
2023-05-04T05:10:50.286Z,98551.09
2023-05-04T05:12:54.759Z,98550.63
2023-05-04T05:14:57.892Z,98547.81
2023-05-04T05:17:03.990Z,98548.47
2023-05-04T05:19:07.088Z,98540.91
2023-05-04T05:21:10.346Z,98535.84
2023-05-04T05:23:13.389Z,98545.59
2023-05-04T05:25:17.418Z,98545.75
2023-05-04T05:27:20.468Z,98546.28
2023-05-04T05:29:25.054Z,98544.84
2023-05-04T05:31:28.302Z,98544.28
2023-05-04T05:33:31.543Z,98548.25
2023-05-04T05:35:34.580Z,98554.94
2023-05-04T05:37:37.691Z,98560.91
2023-05-04T05:39:40.817Z,98564.47
2023-05-04T05:41:43.993Z,98565.28
2023-05-04T05:43:47.234Z,98571.72
2023-05-04T05:45:51.676Z,98574.16
2023-05-04T05:47:54.801Z,98574.31
2023-05-04T05:49:57.989Z,98576.31
2023-05-04T05:52:01.121Z,98581.28
2023-05-04T05:54:04.312Z,98583.84
2023-05-04T05:56:08.176Z,98588.91
2023-05-04T05:58:11.315Z,98573.75
2023-05-04T06:00:15.349Z,98584.84
2023-05-04T06:02:19.936Z,98593.81
2023-05-04T06:04:23.127Z,98580.69
2023-05-04T06:06:26.246Z,98583.72
2023-05-04T06:08:29.315Z,98578.13
2023-05-04T06:10:32.320Z,98583.97
2023-05-04T06:12:35.571Z,98585.19
2023-05-04T06:14:38.792Z,98580.88
2023-05-04T06:16:41.866Z,98587.09
2023-05-04T06:18:46.379Z,98593.28
2023-05-04T06:20:49.624Z,98584.03
2023-05-04T06:22:52.897Z,98601.16
2023-05-04T06:25:02.161Z,98584.09
2023-05-04T06:27:07.358Z,98585.53
2023-05-04T06:29:10.435Z,98581.22
2023-05-04T06:31:13.621Z,98588.13
2023-05-04T06:33:17.252Z,98585.22
2023-05-04T06:35:21.793Z,98580.06
2023-05-04T06:37:25.171Z,98584.53
2023-05-04T06:39:28.408Z,98587.22
2023-05-04T06:41:31.605Z,98589.56
2023-05-04T06:43:34.759Z,98595.06
2023-05-04T06:45:38.130Z,98590.19
2023-05-04T06:47:41.806Z,98594.53
2023-05-04T06:49:44.987Z,98596.44
2023-05-04T06:51:49.654Z,98590.31
2023-05-04T06:53:53.698Z,98593.94
2023-05-04T06:55:56.729Z,98601.84
2023-05-04T06:57:59.835Z,98595.41
2023-05-04T07:00:04.436Z,98601.09
2023-05-04T07:02:08.227Z,98599.22
2023-05-04T07:04:11.579Z,98597.44
2023-05-04T07:06:14.598Z,98595.38
2023-05-04T07:08:19.666Z,98598.78
2023-05-04T07:10:22.755Z,98597.22
2023-05-04T07:12:26.229Z,98583.38
2023-05-04T07:14:29.410Z,98594.59
2023-05-04T07:16:33.051Z,98590.88
2023-05-04T07:18:36.380Z,98595.31
2023-05-04T07:20:43.322Z,98584.00
2023-05-04T07:22:46.452Z,98593.34
2023-05-04T07:24:50.817Z,98598.72
2023-05-04T07:26:53.916Z,98593.78
2023-05-04T07:28:57.161Z,98604.19
2023-05-04T07:31:00.284Z,98599.41
2023-05-04T07:33:03.379Z,98598.94
2023-05-04T07:35:07.303Z,98597.59
2023-05-04T07:37:10.361Z,98598.63
2023-05-04T07:39:13.540Z,98590.66
2023-05-04T07:41:17.888Z,98576.50
2023-05-04T07:43:20.932Z,98582.66
2023-05-04T07:45:24.197Z,98586.97
2023-05-04T07:47:27.394Z,98576.97
2023-05-04T07:49:30.696Z,98570.38
2023-05-04T07:51:33.887Z,98577.03
2023-05-04T07:53:37.028Z,98572.09
2023-05-04T07:55:40.184Z,98568.69
2023-05-04T07:57:44.602Z,98578.50
2023-05-04T07:59:47.717Z,98573.03
2023-05-04T08:01:50.862Z,98571.41
2023-05-04T08:03:53.920Z,98571.72
2023-05-04T08:05:57.077Z,98564.13
2023-05-04T08:08:00.242Z,98572.25
2023-05-04T08:10:03.626Z,98578.63
2023-05-04T08:12:07.678Z,98576.44
2023-05-04T08:14:12.254Z,98577.28
2023-05-04T08:16:15.581Z,98582.75
2023-05-04T08:18:19.400Z,98574.63
2023-05-04T08:20:23.705Z,98579.91
2023-05-04T08:22:27.149Z,98574.59
2023-05-04T08:24:30.600Z,98591.72
2023-05-04T08:26:34.373Z,98581.03
2023-05-04T08:28:38.685Z,98572.41
2023-05-04T08:30:43.558Z,98561.41
2023-05-04T08:32:48.376Z,98562.13
2023-05-04T08:34:51.822Z,98558.38
2023-05-04T08:36:55.004Z,98568.97
2023-05-04T08:38:58.229Z,98568.47
2023-05-04T08:41:03.435Z,98570.09
2023-05-04T08:43:06.445Z,98565.94
2023-05-04T08:45:10.390Z,98561.75
2023-05-04T08:47:14.883Z,98562.88
2023-05-04T08:49:17.956Z,98564.06
2023-05-04T08:51:21.407Z,98562.63
2023-05-04T08:53:24.710Z,98569.63
2023-05-04T08:55:28.267Z,98566.31
2023-05-04T08:57:31.679Z,98568.47
2023-05-04T08:59:35.472Z,98566.56
2023-05-04T09:01:39.285Z,98553.75
2023-05-04T09:03:44.372Z,98549.06
2023-05-04T09:05:47.620Z,98548.72
2023-05-04T09:07:52.741Z,98541.88
2023-05-04T09:09:57.044Z,98541.88
2023-05-04T09:12:00.274Z,98543.38
2023-05-04T09:14:03.315Z,98534.66
2023-05-04T09:16:07.815Z,98533.41
2023-05-04T09:18:11.821Z,98530.72
2023-05-04T09:20:16.375Z,98523.19
2023-05-04T09:22:20.277Z,98525.50
2023-05-04T09:24:29.654Z,98518.38
2023-05-04T09:26:34.368Z,98521.25
2023-05-04T09:28:39.145Z,98518.09
2023-05-04T09:30:42.673Z,98503.91
2023-05-04T09:32:49.592Z,98508.06
2023-05-04T09:34:54.032Z,98511.84
2023-05-04T09:37:01.970Z,98503.72
2023-05-04T09:39:12.458Z,98502.44
2023-05-04T09:41:15.614Z,98504.44
2023-05-04T09:43:18.850Z,98495.16
2023-05-04T09:45:22.122Z,98482.19
2023-05-04T09:47:33.139Z,98496.78
2023-05-04T09:49:36.977Z,98482.00
2023-05-04T09:51:40.138Z,98491.38
2023-05-04T09:53:44.745Z,98488.09
2023-05-04T09:55:49.193Z,98481.44
2023-05-04T09:57:52.234Z,98490.94
2023-05-04T09:59:56.489Z,98491.25
2023-05-04T10:02:04.788Z,98484.59
2023-05-04T10:04:17.528Z,98487.22
2023-05-04T10:06:21.278Z,98469.72
2023-05-04T10:08:24.555Z,98480.16
2023-05-04T10:10:29.270Z,98476.28
2023-05-04T10:12:32.354Z,98470.47
2023-05-04T10:14:36.250Z,98461.47
2023-05-04T10:16:48.893Z,98462.16
2023-05-04T10:19:33.039Z,98461.06
2023-05-04T10:21:47.329Z,98456.34
2023-05-04T10:24:04.535Z,98460.13
2023-05-04T10:26:23.146Z,98446.28
2023-05-04T10:28:37.005Z,98449.59
2023-05-04T10:30:40.674Z,98448.16
2023-05-04T10:32:43.844Z,98445.50
2023-05-04T10:34:47.307Z,98450.03
2023-05-04T10:36:50.417Z,98443.03
2023-05-04T10:38:53.649Z,98447.19
2023-05-04T10:40:56.757Z,98448.66
2023-05-04T10:43:01.148Z,98442.69
2023-05-04T10:45:05.873Z,98425.91
2023-05-04T10:47:09.469Z,98425.31
2023-05-04T10:49:21.244Z,98427.34
2023-05-04T10:51:32.649Z,98428.47
2023-05-04T10:53:42.058Z,98425.69
2023-05-04T10:55:46.542Z,98419.34
2023-05-04T10:57:53.278Z,98414.63
2023-05-04T10:59:59.227Z,98406.34
2023-05-04T11:02:03.029Z,98409.81
2023-05-04T11:04:06.462Z,98407.78
2023-05-04T11:06:16.950Z,98399.34
2023-05-04T11:08:21.567Z,98403.84
2023-05-04T11:10:25.895Z,98404.09
2023-05-04T11:12:28.965Z,98397.63
2023-05-04T11:14:37.547Z,98400.22
2023-05-04T11:16:42.869Z,98398.69
2023-05-04T11:18:46.168Z,98393.00
2023-05-04T11:20:49.243Z,98391.28
2023-05-04T11:22:53.079Z,98396.97
2023-05-04T11:24:59.382Z,98388.03
2023-05-04T11:27:03.439Z,98390.34
2023-05-04T11:29:13.636Z,98391.34
2023-05-04T11:31:17.703Z,98379.19
2023-05-04T11:33:22.147Z,98386.13
2023-05-04T11:35:25.243Z,98395.19
2023-05-04T11:37:30.228Z,98379.19
2023-05-04T11:39:33.613Z,98388.53
2023-05-04T11:41:37.857Z,98375.63
2023-05-04T11:43:43.676Z,98373.94
2023-05-04T11:45:49.190Z,98366.13
2023-05-04T11:47:53.381Z,98372.47
2023-05-04T11:49:58.170Z,98368.91
2023-05-04T11:52:07.985Z,98372.94
2023-05-04T11:54:20.863Z,98370.56
2023-05-04T11:56:24.382Z,98374.31
2023-05-04T11:58:28.266Z,98368.28
2023-05-04T12:00:39.626Z,98372.47
2023-05-04T12:02:42.992Z,98362.69
2023-05-04T12:04:46.204Z,98370.94
2023-05-04T12:06:50.758Z,98364.41
2023-05-04T12:09:02.895Z,98368.31
2023-05-04T12:11:16.506Z,98370.25
2023-05-04T12:13:19.789Z,98360.34
2023-05-04T12:15:30.602Z,98366.13
2023-05-04T12:17:42.983Z,98364.50
2023-05-04T12:19:51.138Z,98361.25
2023-05-04T12:21:58.321Z,98356.91
2023-05-04T12:24:02.043Z,98354.75
2023-05-04T12:26:05.626Z,98358.13
2023-05-04T12:28:08.710Z,98347.84
2023-05-04T12:30:13.229Z,98342.31
2023-05-04T12:32:16.359Z,98346.84
2023-05-04T12:34:19.556Z,98347.66
2023-05-04T12:36:22.680Z,98345.47
2023-05-04T12:38:27.193Z,98346.19
2023-05-04T12:40:32.151Z,98343.78
2023-05-04T12:42:35.284Z,98339.13
2023-05-04T12:44:38.338Z,98340.25
2023-05-04T12:46:41.442Z,98340.06
2023-05-04T12:48:44.540Z,98347.44
2023-05-04T12:50:48.603Z,98337.41
2023-05-04T12:52:51.873Z,98335.94
2023-05-04T12:54:56.346Z,98328.91
2023-05-04T12:56:59.422Z,98323.75
2023-05-04T12:59:02.489Z,98316.13
2023-05-04T13:01:05.634Z,98305.19
2023-05-04T13:03:09.640Z,98303.53
2023-05-04T13:05:13.086Z,98315.50
2023-05-04T13:07:16.125Z,98318.16
2023-05-04T13:09:20.716Z,98308.50
2023-05-04T13:11:25.190Z,98306.47
2023-05-04T13:13:29.586Z,98299.13
2023-05-04T13:15:33.193Z,98301.59
2023-05-04T13:17:36.930Z,98294.22
2023-05-04T13:19:40.066Z,98300.06
2023-05-04T13:21:43.488Z,98293.72
2023-05-04T13:23:46.707Z,98292.41
2023-05-04T13:25:50.634Z,98293.78
2023-05-04T13:27:55.252Z,98295.72
2023-05-04T13:30:01.111Z,98290.47
2023-05-04T13:32:04.215Z,98285.06
2023-05-04T13:34:07.585Z,98282.75
2023-05-04T13:36:10.923Z,98285.59
2023-05-04T13:38:14.136Z,98285.50
2023-05-04T13:40:17.350Z,98279.69
2023-05-04T13:42:21.148Z,98274.91
2023-05-04T13:44:25.556Z,98266.09
2023-05-04T13:46:28.987Z,98263.25
2023-05-04T13:48:32.841Z,98261.78
2023-05-04T13:50:35.894Z,98258.09
2023-05-04T13:52:39.012Z,98251.75
2023-05-04T13:54:42.387Z,98249.00
2023-05-04T13:56:46.073Z,98256.34
2023-05-04T13:58:49.097Z,98239.72
2023-05-04T14:00:56.115Z,98242.41
2023-05-04T14:02:59.539Z,98237.88
2023-05-04T14:05:02.900Z,98244.66
2023-05-04T14:07:06.091Z,98226.69
2023-05-04T14:09:09.598Z,98229.97
2023-05-04T14:11:12.626Z,98219.31
2023-05-04T14:13:16.033Z,98214.34
2023-05-04T14:15:22.556Z,98209.38
2023-05-04T14:17:27.144Z,98207.09
2023-05-04T14:19:30.148Z,98204.53
2023-05-04T14:21:33.181Z,98195.91
2023-05-04T14:23:36.304Z,98184.38
2023-05-04T14:25:41.942Z,98184.38
2023-05-04T14:27:45.023Z,98189.88
2023-05-04T14:29:48.226Z,98185.94
2023-05-04T14:31:51.388Z,98184.28
2023-05-04T14:33:57.005Z,98183.09
2023-05-04T14:36:00.986Z,98184.53
2023-05-04T14:38:04.463Z,98190.38
2023-05-04T14:40:09.251Z,98185.25
2023-05-04T14:42:12.791Z,98182.56
2023-05-04T14:44:15.881Z,98184.22
2023-05-04T14:46:18.976Z,98187.34
2023-05-04T14:48:24.273Z,98170.16
2023-05-04T14:50:28.907Z,98171.63
2023-05-04T14:52:32.414Z,98165.94
2023-05-04T14:54:35.435Z,98168.41
2023-05-04T14:56:38.738Z,98168.41
2023-05-04T14:58:42.288Z,98167.38
2023-05-04T15:00:45.481Z,98163.91
2023-05-04T15:02:48.662Z,98163.09
2023-05-04T15:04:51.863Z,98158.13
2023-05-04T15:06:56.637Z,98165.94
2023-05-04T15:08:59.905Z,98158.94
2023-05-04T15:11:02.986Z,98160.16
2023-05-04T15:13:06.179Z,98151.31
2023-05-04T15:15:10.388Z,98154.53
2023-05-04T15:17:13.603Z,98142.44
2023-05-04T15:19:16.703Z,98147.56
2023-05-04T15:21:20.173Z,98151.25
2023-05-04T15:23:24.598Z,98146.72
2023-05-04T15:25:27.757Z,98135.25
2023-05-04T15:27:30.883Z,98140.75
2023-05-04T15:29:33.925Z,98141.41
2023-05-04T15:31:37.463Z,98142.88
2023-05-04T15:33:40.770Z,98141.88
2023-05-04T15:35:44.061Z,98144.16
2023-05-04T15:37:47.102Z,98141.50
2023-05-04T15:39:51.736Z,98138.00
2023-05-04T15:41:54.793Z,98136.00
2023-05-04T15:43:58.124Z,98135.59
2023-05-04T15:46:01.265Z,98128.06
2023-05-04T15:48:04.741Z,98132.38
2023-05-04T15:50:09.193Z,98136.25
2023-05-04T15:52:12.658Z,98133.97
2023-05-04T15:54:15.717Z,98130.00
2023-05-04T15:56:20.497Z,98127.88
2023-05-04T15:58:23.578Z,98132.94
2023-05-04T16:00:27.786Z,98126.28
2023-05-04T16:02:31.343Z,98131.63
2023-05-04T16:04:34.371Z,98133.66
2023-05-04T16:06:37.474Z,98135.69
2023-05-04T16:08:40.661Z,98130.34
2023-05-04T16:10:43.878Z,98131.19
2023-05-04T16:12:48.703Z,98129.69
2023-05-04T16:14:52.087Z,98137.06
2023-05-04T16:16:55.424Z,98136.06
2023-05-04T16:18:58.552Z,98134.56
2023-05-04T16:21:01.541Z,98136.41
2023-05-04T16:23:04.785Z,98134.56
2023-05-04T16:25:10.332Z,98130.06
2023-05-04T16:27:14.381Z,98136.41
2023-05-04T16:29:18.908Z,98127.75
2023-05-04T16:31:22.446Z,98124.28
2023-05-04T16:33:26.792Z,98126.03
2023-05-04T16:35:31.447Z,98124.75
2023-05-04T16:37:36.276Z,98121.81
2023-05-04T16:39:39.733Z,98125.84
2023-05-04T16:41:46.667Z,98125.22
2023-05-04T16:43:50.006Z,98120.06
2023-05-04T16:45:54.569Z,98122.91
2023-05-04T16:47:57.675Z,98120.44
2023-05-04T16:50:00.838Z,98119.75
2023-05-04T16:52:05.657Z,98112.13
2023-05-04T16:54:08.986Z,98115.84
2023-05-04T16:56:18.186Z,98117.81
2023-05-04T16:58:21.442Z,98105.53
2023-05-04T17:00:24.841Z,98098.75
2023-05-04T17:02:29.290Z,98094.41
2023-05-04T17:04:32.418Z,98097.25
2023-05-04T17:06:35.570Z,98094.41
2023-05-04T17:08:38.653Z,98094.41
2023-05-04T17:10:41.902Z,98086.59
2023-05-04T17:12:44.958Z,98091.28
2023-05-04T17:14:48.119Z,98085.69
2023-05-04T17:16:51.191Z,98077.44
2023-05-04T17:18:55.584Z,98089.59
2023-05-04T17:20:58.641Z,98082.16
2023-05-04T17:23:01.814Z,98095.81
2023-05-04T17:25:05.308Z,98098.84
2023-05-04T17:27:08.406Z,98098.19
2023-05-04T17:29:11.967Z,98091.56
2023-05-04T17:31:15.164Z,98080.84
2023-05-04T17:33:18.348Z,98086.69
2023-05-04T17:35:25.986Z,98079.25
2023-05-04T17:37:29.767Z,98093.72
2023-05-04T17:39:32.851Z,98095.91
2023-05-04T17:41:36.358Z,98105.75
2023-05-04T17:43:39.536Z,98100.78
2023-05-04T17:45:42.624Z,98106.28
2023-05-04T17:47:46.482Z,98103.31
2023-05-04T17:49:49.664Z,98108.16
2023-05-04T17:51:54.215Z,98106.19
2023-05-04T17:53:57.365Z,98105.91
2023-05-04T17:56:00.580Z,98100.66
2023-05-04T17:58:03.608Z,98100.66
2023-05-04T18:00:09.002Z,98101.34
2023-05-04T18:02:12.399Z,98096.09
2023-05-04T18:04:15.739Z,98090.84
2023-05-04T18:06:19.785Z,98091.53
2023-05-04T18:08:24.279Z,98091.94
2023-05-04T18:10:27.405Z,98091.78
2023-05-04T18:12:30.618Z,98095.28
2023-05-04T18:14:33.908Z,98092.97
2023-05-04T18:16:39.303Z,98099.66
2023-05-04T18:18:42.544Z,98100.16
2023-05-04T18:20:45.787Z,98104.97
2023-05-04T18:22:48.920Z,98105.81
2023-05-04T18:24:53.376Z,98096.38
2023-05-04T18:26:57.236Z,98107.03
2023-05-04T18:29:11.098Z,98109.66
2023-05-04T18:31:20.737Z,98110.69
2023-05-04T18:33:23.867Z,98108.69
2023-05-04T18:35:27.088Z,98105.75
2023-05-04T18:37:30.722Z,98110.91
2023-05-04T18:39:33.837Z,98117.69
2023-05-04T18:41:38.307Z,98117.38
2023-05-04T18:43:51.390Z,98118.38
2023-05-04T18:45:54.515Z,98119.03
2023-05-04T18:47:58.998Z,98119.00
2023-05-04T18:50:02.283Z,98126.28
2023-05-04T18:52:05.839Z,98126.94
2023-05-04T18:54:09.188Z,98121.31
2023-05-04T18:56:12.402Z,98125.28
2023-05-04T18:58:16.907Z,98129.09
2023-05-04T19:00:20.320Z,98128.09
2023-05-04T19:02:23.437Z,98132.25
2023-05-04T19:04:26.563Z,98132.88
2023-05-04T19:06:29.638Z,98135.69
2023-05-04T19:08:32.687Z,98138.84
2023-05-04T19:10:35.877Z,98148.41
2023-05-04T19:12:38.962Z,98144.41
2023-05-04T19:14:44.133Z,98152.66
2023-05-04T19:16:47.282Z,98147.69
2023-05-04T19:18:50.380Z,98157.94
2023-05-04T19:20:54.691Z,98153.09
2023-05-04T19:22:57.824Z,98158.72
2023-05-04T19:25:00.907Z,98153.25
2023-05-04T19:27:04.332Z,98158.84
2023-05-04T19:29:07.525Z,98155.53
2023-05-04T19:31:12.104Z,98161.31
2023-05-04T19:33:15.461Z,98162.44
2023-05-04T19:35:19.070Z,98160.13
2023-05-04T19:37:23.116Z,98161.09
2023-05-04T19:39:26.431Z,98172.69
2023-05-04T19:41:29.538Z,98175.34
2023-05-04T19:43:33.507Z,98174.66
2023-05-04T19:45:36.611Z,98170.00
2023-05-04T19:47:41.797Z,98166.97
2023-05-04T19:49:47.516Z,98176.59
2023-05-04T19:51:50.570Z,98175.38
2023-05-04T19:53:53.669Z,98174.72
2023-05-04T19:55:58.268Z,98172.25
2023-05-04T19:58:01.393Z,98173.91
2023-05-04T20:00:06.607Z,98174.88
2023-05-04T20:02:14.727Z,98181.00
2023-05-04T20:04:19.448Z,98169.25
2023-05-04T20:06:22.716Z,98179.97
2023-05-04T20:08:26.867Z,98174.16
2023-05-04T20:10:29.932Z,98178.47
2023-05-04T20:12:33.497Z,98173.94
2023-05-04T20:14:36.785Z,98180.69
2023-05-04T20:16:41.773Z,98174.88
2023-05-04T20:18:45.560Z,98179.34
2023-05-04T20:20:51.395Z,98176.03
2023-05-04T20:22:55.988Z,98180.47
2023-05-04T20:24:59.200Z,98185.25
2023-05-04T20:27:02.386Z,98179.31
2023-05-04T20:29:05.658Z,98177.59
2023-05-04T20:31:09.228Z,98170.53
2023-05-04T20:33:12.467Z,98182.88
2023-05-04T20:35:16.166Z,98179.44
2023-05-04T20:37:20.634Z,98181.53
2023-05-04T20:39:23.841Z,98181.00
2023-05-04T20:41:26.954Z,98177.84
2023-05-04T20:43:30.080Z,98173.84
2023-05-04T20:45:33.476Z,98177.09
2023-05-04T20:47:36.848Z,98177.41
2023-05-04T20:49:39.976Z,98185.78
2023-05-04T20:51:43.133Z,98185.44
2023-05-04T20:53:47.859Z,98176.44
2023-05-04T20:55:51.191Z,98178.03
2023-05-04T20:57:54.320Z,98179.31
2023-05-04T20:59:57.523Z,98177.44
2023-05-04T21:02:00.653Z,98179.00
2023-05-04T21:04:03.788Z,98177.28
2023-05-04T21:06:07.485Z,98177.03
2023-05-04T21:08:12.562Z,98171.78
2023-05-04T21:10:17.029Z,98176.69
2023-05-04T21:12:20.102Z,98165.72
2023-05-04T21:14:23.647Z,98162.84
2023-05-04T21:16:26.780Z,98168.72
2023-05-04T21:18:29.920Z,98161.41
2023-05-04T21:20:33.212Z,98164.34
2023-05-04T21:22:36.338Z,98174.34
2023-05-04T21:24:39.508Z,98166.72
2023-05-04T21:26:45.043Z,98160.22
2023-05-04T21:28:48.161Z,98165.94
2023-05-04T21:30:53.857Z,98170.69
2023-05-04T21:32:57.010Z,98164.03
2023-05-04T21:35:00.087Z,98161.84
2023-05-04T21:37:03.209Z,98156.16
2023-05-04T21:39:06.316Z,98157.16
2023-05-04T21:41:13.366Z,98166.31
2023-05-04T21:43:17.935Z,98159.38
2023-05-04T21:45:21.442Z,98156.34
2023-05-04T21:47:24.829Z,98154.16
2023-05-04T21:49:27.880Z,98157.91
2023-05-04T21:51:31.716Z,98157.50
2023-05-04T21:53:34.810Z,98148.59
2023-05-04T21:55:37.880Z,98156.97
2023-05-04T21:57:40.957Z,98152.13
2023-05-04T21:59:46.147Z,98154.19
2023-05-04T22:01:49.995Z,98165.47
2023-05-04T22:03:53.873Z,98153.66
2023-05-04T22:05:58.220Z,98162.00
2023-05-04T22:08:01.684Z,98155.63
2023-05-04T22:10:05.190Z,98161.31
2023-05-04T22:12:08.807Z,98156.75
2023-05-04T22:14:11.852Z,98156.34
2023-05-04T22:16:16.350Z,98161.63
2023-05-04T22:18:19.428Z,98157.91
2023-05-04T22:20:23.484Z,98153.88
2023-05-04T22:22:26.577Z,98155.09
2023-05-04T22:24:29.500Z,98156.53
2023-05-04T22:26:32.524Z,98151.94
2023-05-04T22:28:35.590Z,98152.63
2023-05-04T22:30:38.604Z,98155.69
2023-05-04T22:32:43.100Z,98160.41
2023-05-04T22:34:46.709Z,98146.94
2023-05-04T22:36:49.762Z,98159.38
2023-05-04T22:38:52.835Z,98161.47
2023-05-04T22:40:55.943Z,98160.06
2023-05-04T22:42:58.998Z,98159.53
2023-05-04T22:45:02.012Z,98160.75
2023-05-04T22:47:06.291Z,98154.94
2023-05-04T22:49:10.778Z,98153.13
2023-05-04T22:51:13.933Z,98167.38
2023-05-04T22:53:17.334Z,98160.88
2023-05-04T22:55:20.617Z,98171.53
2023-05-04T22:57:22.723Z,98157.13
2023-05-04T22:59:25.791Z,98160.00
2023-05-04T23:01:30.277Z,98160.28
2023-05-04T23:03:33.518Z,98163.19
2023-05-04T23:05:38.029Z,98150.31
2023-05-04T23:07:41.044Z,98158.31
2023-05-04T23:09:45.175Z,98164.72
2023-05-04T23:11:48.286Z,98164.97
2023-05-04T23:13:51.400Z,98161.63
2023-05-04T23:15:54.558Z,98160.94
2023-05-04T23:17:57.765Z,98161.06
2023-05-04T23:20:01.152Z,98156.22
2023-05-04T23:22:05.685Z,98158.16
2023-05-04T23:24:08.948Z,98161.06
2023-05-04T23:26:11.991Z,98165.75
2023-05-04T23:28:15.006Z,98161.72
2023-05-04T23:30:18.410Z,98161.16
2023-05-04T23:32:21.492Z,98163.31
2023-05-04T23:34:24.555Z,98166.34
2023-05-04T23:36:27.688Z,98167.59
2023-05-04T23:38:32.059Z,98164.25
2023-05-04T23:40:35.109Z,98160.38
2023-05-04T23:42:38.353Z,98167.56
2023-05-04T23:44:41.470Z,98168.50
2023-05-04T23:46:44.596Z,98176.63
2023-05-04T23:48:47.567Z,98169.00
2023-05-04T23:50:53.899Z,98174.38
2023-05-04T23:52:57.091Z,98171.75
2023-05-04T23:55:01.486Z,98172.84
2023-05-04T23:57:05.030Z,98176.72
2023-05-04T23:59:08.227Z,98167.41
